sensor_id;sensor_type;location;lat;lon;timestamp;pressure;altitude;pressure_sealevel;temperature;humidity
3102;BME280;1561;42.666;23.392;2023-11-19T00:02:20;95153.06;;;4.16;100.00
3102;BME280;1561;42.666;23.392;2023-11-19T00:04:50;95147.66;;;4.22;100.00
3102;BME280;1561;42.666;23.392;2023-11-19T00:07:17;95156.69;;;4.26;100.00
3102;BME280;1561;42.666;23.392;2023-11-19T00:09:55;95142.75;;;4.19;100.00
3102;BME280;1561;42.666;23.392;2023-11-19T00:12:33;95148.44;;;4.09;100.00
3102;BME280;1561;42.666;23.392;2023-11-19T00:15:03;95145.72;;;4.12;100.00
3102;BME280;1561;42.666;23.392;2023-11-19T00:17:36;95146.19;;;4.18;100.00
3102;BME280;1561;42.666;23.392;2023-11-19T00:20:07;95134.19;;;4.22;100.00
3102;BME280;1561;42.666;23.392;2023-11-19T00:22:35;95154.53;;;4.20;100.00
3102;BME280;1561;42.666;23.392;2023-11-19T00:25:14;95151.09;;;4.21;100.00
3102;BME280;1561;42.666;23.392;2023-11-19T00:27:42;95164.63;;;4.20;100.00
3102;BME280;1561;42.666;23.392;2023-11-19T00:30:19;95095.66;;;3.75;100.00
3102;BME280;1561;42.666;23.392;2023-11-19T00:32:48;95157.03;;;4.20;100.00
3102;BME280;1561;42.666;23.392;2023-11-19T00:35:17;95148.72;;;4.18;100.00
3102;BME280;1561;42.666;23.392;2023-11-19T00:37:46;95128.22;;;4.09;100.00
3102;BME280;1561;42.666;23.392;2023-11-19T00:40:22;95152.16;;;4.17;100.00
3102;BME280;1561;42.666;23.392;2023-11-19T00:42:52;95153.06;;;4.16;100.00
3102;BME280;1561;42.666;23.392;2023-11-19T00:45:29;95144.03;;;4.12;100.00
3102;BME280;1561;42.666;23.392;2023-11-19T00:48:10;95171.56;;;4.17;100.00
3102;BME280;1561;42.666;23.392;2023-11-19T00:50:40;95175.63;;;4.19;100.00
3102;BME280;1561;42.666;23.392;2023-11-19T00:53:11;95141.75;;;4.22;100.00
3102;BME280;1561;42.666;23.392;2023-11-19T00:55:44;95154.94;;;4.13;100.00
3102;BME280;1561;42.666;23.392;2023-11-19T00:58:14;95161.28;;;4.20;100.00
3102;BME280;1561;42.666;23.392;2023-11-19T01:00:45;95121.88;;;4.02;100.00
3102;BME280;1561;42.666;23.392;2023-11-19T01:03:12;95157.56;;;4.11;100.00
3102;BME280;1561;42.666;23.392;2023-11-19T01:05:43;95179.44;;;4.26;100.00
3102;BME280;1561;42.666;23.392;2023-11-19T01:08:14;95169.94;;;4.16;100.00
3102;BME280;1561;42.666;23.392;2023-11-19T01:10:52;95159.34;;;4.09;100.00
3102;BME280;1561;42.666;23.392;2023-11-19T01:13:21;95137.81;;;3.88;100.00
3102;BME280;1561;42.666;23.392;2023-11-19T01:15:51;95165.88;;;4.13;100.00
3102;BME280;1561;42.666;23.392;2023-11-19T01:18:19;95146.53;;;3.98;100.00
3102;BME280;1561;42.666;23.392;2023-11-19T01:20:48;95154.53;;;4.20;100.00
3102;BME280;1561;42.666;23.392;2023-11-19T01:23:16;95171.38;;;4.20;100.00
3102;BME280;1561;42.666;23.392;2023-11-19T01:25:46;95172.16;;;4.06;100.00
3102;BME280;1561;42.666;23.392;2023-11-19T01:28:30;95166.31;;;4.06;100.00
3102;BME280;1561;42.666;23.392;2023-11-19T01:30:58;95173.38;;;4.15;100.00
3102;BME280;1561;42.666;23.392;2023-11-19T01:33:28;95168.31;;;4.15;100.00
3102;BME280;1561;42.666;23.392;2023-11-19T01:35:59;95162.09;;;4.20;100.00
3102;BME280;1561;42.666;23.392;2023-11-19T01:38:28;95159.97;;;4.13;100.00
3102;BME280;1561;42.666;23.392;2023-11-19T01:40:59;95175.97;;;4.13;100.00
3102;BME280;1561;42.666;23.392;2023-11-19T01:43:33;95181.50;;;4.20;100.00
3102;BME280;1561;42.666;23.392;2023-11-19T01:46:02;95182.44;;;4.03;100.00
3102;BME280;1561;42.666;23.392;2023-11-19T01:48:31;95178.94;;;4.06;100.00
3102;BME280;1561;42.666;23.392;2023-11-19T01:51:00;95179.38;;;3.98;100.00
3102;BME280;1561;42.666;23.392;2023-11-19T01:53:31;95181.91;;;3.98;100.00
3102;BME280;1561;42.666;23.392;2023-11-19T01:56:01;95173.41;;;3.99;100.00
3102;BME280;1561;42.666;23.392;2023-11-19T01:58:34;95144.25;;;3.94;100.00
3102;BME280;1561;42.666;23.392;2023-11-19T02:01:05;95045.31;;;3.13;100.00
3102;BME280;1561;42.666;23.392;2023-11-19T02:03:33;95174.72;;;3.91;100.00
3102;BME280;1561;42.666;23.392;2023-11-19T02:06:04;95161.81;;;3.81;100.00
3102;BME280;1561;42.666;23.392;2023-11-19T02:08:37;95177.88;;;3.80;100.00
3102;BME280;1561;42.666;23.392;2023-11-19T02:11:05;95181.78;;;3.70;100.00
3102;BME280;1561;42.666;23.392;2023-11-19T02:13:38;95168.09;;;3.74;100.00
3102;BME280;1561;42.666;23.392;2023-11-19T02:16:10;95158.25;;;3.70;100.00
3102;BME280;1561;42.666;23.392;2023-11-19T02:18:42;95147.09;;;3.74;100.00
3102;BME280;1561;42.666;23.392;2023-11-19T02:21:09;95153.13;;;3.71;100.00
3102;BME280;1561;42.666;23.392;2023-11-19T02:23:39;95183.25;;;3.74;100.00
3102;BME280;1561;42.666;23.392;2023-11-19T02:26:14;95155.41;;;3.60;100.00
3102;BME280;1561;42.666;23.392;2023-11-19T02:29:04;95132.06;;;3.41;100.00
3102;BME280;1561;42.666;23.392;2023-11-19T02:31:44;95189.91;;;3.75;100.00
3102;BME280;1561;42.666;23.392;2023-11-19T02:34:22;95187.81;;;3.68;100.00
3102;BME280;1561;42.666;23.392;2023-11-19T02:36:52;95178.03;;;3.77;100.00
3102;BME280;1561;42.666;23.392;2023-11-19T02:39:21;95163.94;;;3.73;100.00
3102;BME280;1561;42.666;23.392;2023-11-19T02:41:48;95173.53;;;3.82;100.00
3102;BME280;1561;42.666;23.392;2023-11-19T02:44:20;95170.38;;;3.79;100.00
3102;BME280;1561;42.666;23.392;2023-11-19T02:46:49;95180.13;;;3.85;100.00
3102;BME280;1561;42.666;23.392;2023-11-19T02:49:18;95154.38;;;3.78;100.00
3102;BME280;1561;42.666;23.392;2023-11-19T02:51:46;95165.63;;;3.73;100.00
3102;BME280;1561;42.666;23.392;2023-11-19T02:54:17;95183.28;;;3.88;100.00
3102;BME280;1561;42.666;23.392;2023-11-19T02:56:47;95177.75;;;3.82;100.00
3102;BME280;1561;42.666;23.392;2023-11-19T02:59:39;95174.50;;;3.80;100.00
3102;BME280;1561;42.666;23.392;2023-11-19T03:02:10;95177.09;;;3.94;100.00
3102;BME280;1561;42.666;23.392;2023-11-19T03:04:38;95165.72;;;3.87;100.00
3102;BME280;1561;42.666;23.392;2023-11-19T03:07:12;95153.44;;;3.65;100.00
3102;BME280;1561;42.666;23.392;2023-11-19T03:09:40;95192.84;;;3.83;100.00
3102;BME280;1561;42.666;23.392;2023-11-19T03:12:08;95164.28;;;3.67;100.00
3102;BME280;1561;42.666;23.392;2023-11-19T03:14:44;95053.06;;;2.94;100.00
3102;BME280;1561;42.666;23.392;2023-11-19T03:17:14;95187.66;;;3.71;100.00
3102;BME280;1561;42.666;23.392;2023-11-19T03:19:47;95198.22;;;3.77;100.00
3102;BME280;1561;42.666;23.392;2023-11-19T03:22:15;95187.31;;;3.77;100.00
3102;BME280;1561;42.666;23.392;2023-11-19T03:24:46;95162.25;;;3.58;100.00
3102;BME280;1561;42.666;23.392;2023-11-19T03:27:15;95112.94;;;3.22;100.00
3102;BME280;1561;42.666;23.392;2023-11-19T03:29:47;95196.13;;;3.70;100.00
3102;BME280;1561;42.666;23.392;2023-11-19T03:32:14;95180.41;;;3.65;100.00
3102;BME280;1561;42.666;23.392;2023-11-19T03:34:42;95185.94;;;3.71;100.00
3102;BME280;1561;42.666;23.392;2023-11-19T03:37:17;95188.63;;;3.68;100.00
3102;BME280;1561;42.666;23.392;2023-11-19T03:39:45;95183.16;;;3.76;100.00
3102;BME280;1561;42.666;23.392;2023-11-19T03:42:12;95169.09;;;3.56;100.00
3102;BME280;1561;42.666;23.392;2023-11-19T03:44:40;95210.03;;;3.77;100.00
3102;BME280;1561;42.666;23.392;2023-11-19T03:47:09;95207.94;;;3.69;100.00
3102;BME280;1561;42.666;23.392;2023-11-19T03:49:36;95192.94;;;3.66;100.00
3102;BME280;1561;42.666;23.392;2023-11-19T03:52:11;95216.31;;;3.85;100.00
3102;BME280;1561;42.666;23.392;2023-11-19T03:54:38;95212.47;;;3.78;100.00
3102;BME280;1561;42.666;23.392;2023-11-19T03:57:07;95215.66;;;3.66;100.00
3102;BME280;1561;42.666;23.392;2023-11-19T03:59:36;95191.38;;;3.64;100.00
3102;BME280;1561;42.666;23.392;2023-11-19T04:02:04;95211.94;;;3.73;100.00
3102;BME280;1561;42.666;23.392;2023-11-19T04:04:34;95216.97;;;3.73;100.00
3102;BME280;1561;42.666;23.392;2023-11-19T04:07:01;95208.00;;;3.83;100.00
3102;BME280;1561;42.666;23.392;2023-11-19T04:09:29;95218.94;;;3.84;100.00
3102;BME280;1561;42.666;23.392;2023-11-19T04:12:01;95224.13;;;3.81;100.00
3102;BME280;1561;42.666;23.392;2023-11-19T04:14:30;95221.22;;;3.57;100.00
3102;BME280;1561;42.666;23.392;2023-11-19T04:16:59;95215.09;;;3.61;100.00
3102;BME280;1561;42.666;23.392;2023-11-19T04:19:27;95214.88;;;3.66;100.00
3102;BME280;1561;42.666;23.392;2023-11-19T04:22:01;95197.22;;;3.50;100.00
3102;BME280;1561;42.666;23.392;2023-11-19T04:24:29;95217.81;;;3.74;100.00
3102;BME280;1561;42.666;23.392;2023-11-19T04:26:57;95216.66;;;3.64;100.00
3102;BME280;1561;42.666;23.392;2023-11-19T04:29:24;95227.56;;;3.64;100.00
3102;BME280;1561;42.666;23.392;2023-11-19T04:31:53;95211.94;;;3.58;100.00
3102;BME280;1561;42.666;23.392;2023-11-19T04:34:21;95218.94;;;3.53;100.00
3102;BME280;1561;42.666;23.392;2023-11-19T04:36:51;95215.94;;;3.46;100.00
3102;BME280;1561;42.666;23.392;2023-11-19T04:39:23;95236.78;;;3.65;100.00
3102;BME280;1561;42.666;23.392;2023-11-19T04:41:51;95235.38;;;3.60;100.00
3102;BME280;1561;42.666;23.392;2023-11-19T04:44:22;95210.41;;;3.55;100.00
3102;BME280;1561;42.666;23.392;2023-11-19T04:46:49;95111.91;;;3.10;100.00
3102;BME280;1561;42.666;23.392;2023-11-19T04:49:17;95231.16;;;3.45;100.00
3102;BME280;1561;42.666;23.392;2023-11-19T04:51:46;95215.44;;;3.40;100.00
3102;BME280;1561;42.666;23.392;2023-11-19T04:54:16;95200.63;;;3.34;100.00
3102;BME280;1561;42.666;23.392;2023-11-19T04:56:46;95225.78;;;3.51;100.00
3102;BME280;1561;42.666;23.392;2023-11-19T04:59:14;95222.53;;;3.49;100.00
3102;BME280;1561;42.666;23.392;2023-11-19T05:01:46;95213.91;;;3.53;100.00
3102;BME280;1561;42.666;23.392;2023-11-19T05:04:14;95241.41;;;3.57;100.00
3102;BME280;1561;42.666;23.392;2023-11-19T05:06:45;95232.47;;;3.52;100.00
3102;BME280;1561;42.666;23.392;2023-11-19T05:09:15;95254.31;;;3.53;100.00
3102;BME280;1561;42.666;23.392;2023-11-19T05:11:42;95247.38;;;3.56;100.00
3102;BME280;1561;42.666;23.392;2023-11-19T05:14:18;95273.13;;;3.63;100.00
3102;BME280;1561;42.666;23.392;2023-11-19T05:16:46;95245.59;;;3.58;100.00
3102;BME280;1561;42.666;23.392;2023-11-19T05:19:18;95256.25;;;3.63;100.00
3102;BME280;1561;42.666;23.392;2023-11-19T05:21:52;95258.53;;;3.68;100.00
3102;BME280;1561;42.666;23.392;2023-11-19T05:24:20;95203.94;;;3.19;100.00
3102;BME280;1561;42.666;23.392;2023-11-19T05:26:51;95268.13;;;3.61;100.00
3102;BME280;1561;42.666;23.392;2023-11-19T05:29:29;95265.88;;;3.72;100.00
3102;BME280;1561;42.666;23.392;2023-11-19T05:31:56;95236.78;;;3.50;100.00
3102;BME280;1561;42.666;23.392;2023-11-19T05:34:25;95266.78;;;3.56;100.00
3102;BME280;1561;42.666;23.392;2023-11-19T05:36:56;95268.31;;;3.74;100.00
3102;BME280;1561;42.666;23.392;2023-11-19T05:39:25;95272.06;;;3.67;100.00
3102;BME280;1561;42.666;23.392;2023-11-19T05:41:56;95254.13;;;3.40;100.00
3102;BME280;1561;42.666;23.392;2023-11-19T05:44:25;95270.75;;;3.60;100.00
3102;BME280;1561;42.666;23.392;2023-11-19T05:46:56;95260.41;;;3.49;100.00
3102;BME280;1561;42.666;23.392;2023-11-19T05:49:25;95273.53;;;3.71;100.00
3102;BME280;1561;42.666;23.392;2023-11-19T05:52:00;95254.22;;;3.54;100.00
3102;BME280;1561;42.666;23.392;2023-11-19T05:54:38;95255.56;;;3.44;100.00
3102;BME280;1561;42.666;23.392;2023-11-19T05:57:12;95261.47;;;3.60;100.00
3102;BME280;1561;42.666;23.392;2023-11-19T05:59:42;95237.91;;;3.44;100.00
3102;BME280;1561;42.666;23.392;2023-11-19T06:02:09;95252.97;;;3.46;100.00
3102;BME280;1561;42.666;23.392;2023-11-19T06:04:44;95270.50;;;3.49;100.00
3102;BME280;1561;42.666;23.392;2023-11-19T06:07:20;95283.84;;;3.51;100.00
3102;BME280;1561;42.666;23.392;2023-11-19T06:09:48;95313.28;;;3.52;100.00
3102;BME280;1561;42.666;23.392;2023-11-19T06:12:20;95309.84;;;3.53;100.00
3102;BME280;1561;42.666;23.392;2023-11-19T06:14:51;95315.53;;;3.41;100.00
3102;BME280;1561;42.666;23.392;2023-11-19T06:17:22;95303.75;;;3.57;100.00
3102;BME280;1561;42.666;23.392;2023-11-19T06:19:49;95259.69;;;3.47;100.00
3102;BME280;1561;42.666;23.392;2023-11-19T06:22:16;95244.91;;;3.39;100.00
3102;BME280;1561;42.666;23.392;2023-11-19T06:24:46;95285.75;;;3.63;100.00
3102;BME280;1561;42.666;23.392;2023-11-19T06:27:18;95278.91;;;3.65;100.00
3102;BME280;1561;42.666;23.392;2023-11-19T06:29:46;95287.47;;;3.62;100.00
3102;BME280;1561;42.666;23.392;2023-11-19T06:32:18;95289.38;;;3.42;100.00
3102;BME280;1561;42.666;23.392;2023-11-19T06:34:45;95297.81;;;3.58;100.00
3102;BME280;1561;42.666;23.392;2023-11-19T06:37:17;95289.75;;;3.67;100.00
3102;BME280;1561;42.666;23.392;2023-11-19T06:39:48;95273.59;;;3.69;100.00
3102;BME280;1561;42.666;23.392;2023-11-19T06:42:24;95214.69;;;3.22;100.00
3102;BME280;1561;42.666;23.392;2023-11-19T06:44:54;95298.78;;;3.71;100.00
3102;BME280;1561;42.666;23.392;2023-11-19T06:47:26;95267.28;;;3.78;100.00
3102;BME280;1561;42.666;23.392;2023-11-19T06:49:57;95303.59;;;3.75;100.00
3102;BME280;1561;42.666;23.392;2023-11-19T06:52:25;95305.38;;;3.58;100.00
3102;BME280;1561;42.666;23.392;2023-11-19T06:54:55;95298.22;;;3.66;100.00
3102;BME280;1561;42.666;23.392;2023-11-19T06:57:31;95293.44;;;3.44;100.00
3102;BME280;1561;42.666;23.392;2023-11-19T07:00:27;95250.84;;;3.23;100.00
3102;BME280;1561;42.666;23.392;2023-11-19T07:03:01;95301.75;;;3.31;100.00
3102;BME280;1561;42.666;23.392;2023-11-19T07:05:37;95255.47;;;2.82;100.00
3102;BME280;1561;42.666;23.392;2023-11-19T07:08:13;95305.19;;;3.30;100.00
3102;BME280;1561;42.666;23.392;2023-11-19T07:10:40;95222.50;;;3.02;100.00
3102;BME280;1561;42.666;23.392;2023-11-19T07:13:13;95310.41;;;3.42;100.00
3102;BME280;1561;42.666;23.392;2023-11-19T07:15:47;95314.44;;;3.77;100.00
3102;BME280;1561;42.666;23.392;2023-11-19T07:18:32;95317.28;;;3.71;100.00
3102;BME280;1561;42.666;23.392;2023-11-19T07:21:01;95332.34;;;3.73;100.00
3102;BME280;1561;42.666;23.392;2023-11-19T07:23:30;95320.03;;;3.67;100.00
3102;BME280;1561;42.666;23.392;2023-11-19T07:26:06;95341.19;;;3.97;100.00
3102;BME280;1561;42.666;23.392;2023-11-19T07:28:37;95322.47;;;3.53;100.00
3102;BME280;1561;42.666;23.392;2023-11-19T07:31:08;95338.88;;;3.77;100.00
3102;BME280;1561;42.666;23.392;2023-11-19T07:33:42;95344.81;;;3.76;100.00
3102;BME280;1561;42.666;23.392;2023-11-19T07:36:19;95362.88;;;4.16;100.00
3102;BME280;1561;42.666;23.392;2023-11-19T07:39:10;95348.75;;;4.12;100.00
3102;BME280;1561;42.666;23.392;2023-11-19T07:42:06;95356.50;;;3.94;100.00
3102;BME280;1561;42.666;23.392;2023-11-19T07:44:40;95372.63;;;4.07;100.00
3102;BME280;1561;42.666;23.392;2023-11-19T07:47:20;95377.53;;;4.10;100.00
3102;BME280;1561;42.666;23.392;2023-11-19T07:49:54;95347.63;;;4.02;100.00
3102;BME280;1561;42.666;23.392;2023-11-19T07:52:36;95321.69;;;3.99;100.00
3102;BME280;1561;42.666;23.392;2023-11-19T07:55:18;95306.75;;;3.48;100.00
3102;BME280;1561;42.666;23.392;2023-11-19T07:58:06;95377.34;;;3.82;100.00
3102;BME280;1561;42.666;23.392;2023-11-19T08:00:38;95337.06;;;3.63;100.00
3102;BME280;1561;42.666;23.392;2023-11-19T08:03:15;95371.47;;;3.66;100.00
3102;BME280;1561;42.666;23.392;2023-11-19T08:05:50;95359.56;;;3.83;100.00
3102;BME280;1561;42.666;23.392;2023-11-19T08:08:23;95353.31;;;3.75;100.00
3102;BME280;1561;42.666;23.392;2023-11-19T08:11:10;95367.56;;;3.91;100.00
3102;BME280;1561;42.666;23.392;2023-11-19T08:13:42;95332.19;;;4.67;100.00
3102;BME280;1561;42.666;23.392;2023-11-19T08:16:12;95362.13;;;4.59;100.00
3102;BME280;1561;42.666;23.392;2023-11-19T08:18:44;95302.34;;;4.13;100.00
3102;BME280;1561;42.666;23.392;2023-11-19T08:21:11;95375.97;;;4.83;100.00
3102;BME280;1561;42.666;23.392;2023-11-19T08:23:39;95371.88;;;4.51;100.00
3102;BME280;1561;42.666;23.392;2023-11-19T08:26:09;95357.00;;;5.62;100.00
3102;BME280;1561;42.666;23.392;2023-11-19T08:28:47;95259.34;;;6.37;100.00
3102;BME280;1561;42.666;23.392;2023-11-19T08:31:17;95391.22;;;6.78;100.00
3102;BME280;1561;42.666;23.392;2023-11-19T08:33:53;95397.94;;;5.84;100.00
3102;BME280;1561;42.666;23.392;2023-11-19T08:37:00;95390.13;;;5.01;100.00
3102;BME280;1561;42.666;23.392;2023-11-19T08:39:44;95384.69;;;5.37;100.00
3102;BME280;1561;42.666;23.392;2023-11-19T08:42:36;95379.78;;;5.20;100.00
3102;BME280;1561;42.666;23.392;2023-11-19T08:45:07;95390.78;;;5.48;100.00
3102;BME280;1561;42.666;23.392;2023-11-19T08:47:38;95397.38;;;5.65;100.00
3102;BME280;1561;42.666;23.392;2023-11-19T08:50:09;95391.63;;;8.83;100.00
3102;BME280;1561;42.666;23.392;2023-11-19T08:52:36;95385.56;;;8.97;89.62
3102;BME280;1561;42.666;23.392;2023-11-19T08:55:08;95388.44;;;9.27;85.54
3102;BME280;1561;42.666;23.392;2023-11-19T08:57:46;95408.00;;;8.91;80.54
3102;BME280;1561;42.666;23.392;2023-11-19T09:00:13;95410.44;;;8.46;85.25
3102;BME280;1561;42.666;23.392;2023-11-19T09:02:46;95385.88;;;9.61;79.12
3102;BME280;1561;42.666;23.392;2023-11-19T09:05:16;95369.22;;;7.80;84.47
3102;BME280;1561;42.666;23.392;2023-11-19T09:07:46;95388.13;;;6.34;100.00
3102;BME280;1561;42.666;23.392;2023-11-19T09:10:15;95384.63;;;5.66;100.00
3102;BME280;1561;42.666;23.392;2023-11-19T09:12:48;95379.47;;;5.68;100.00
3102;BME280;1561;42.666;23.392;2023-11-19T09:15:17;95376.72;;;5.43;100.00
3102;BME280;1561;42.666;23.392;2023-11-19T09:17:46;95376.34;;;5.21;100.00
3102;BME280;1561;42.666;23.392;2023-11-19T09:20:13;95372.84;;;4.64;100.00
3102;BME280;1561;42.666;23.392;2023-11-19T09:22:44;95357.66;;;4.94;100.00
3102;BME280;1561;42.666;23.392;2023-11-19T09:25:19;95401.50;;;5.24;100.00
3102;BME280;1561;42.666;23.392;2023-11-19T09:27:53;95384.63;;;5.52;100.00
3102;BME280;1561;42.666;23.392;2023-11-19T09:30:26;95386.78;;;5.01;100.00
3102;BME280;1561;42.666;23.392;2023-11-19T09:32:54;95372.50;;;5.57;100.00
3102;BME280;1561;42.666;23.392;2023-11-19T09:35:25;95365.53;;;7.84;100.00
3102;BME280;1561;42.666;23.392;2023-11-19T09:37:55;95361.53;;;9.12;80.28
3102;BME280;1561;42.666;23.392;2023-11-19T09:40:24;95353.16;;;9.09;75.98
3102;BME280;1561;42.666;23.392;2023-11-19T09:42:54;95353.91;;;10.12;71.89
3102;BME280;1561;42.666;23.392;2023-11-19T09:45:27;95344.25;;;9.50;68.98
3102;BME280;1561;42.666;23.392;2023-11-19T09:47:59;95340.59;;;7.01;87.56
3102;BME280;1561;42.666;23.392;2023-11-19T09:50:31;95354.16;;;6.75;96.62
3102;BME280;1561;42.666;23.392;2023-11-19T09:53:03;95293.25;;;8.58;85.04
3102;BME280;1561;42.666;23.392;2023-11-19T09:55:31;95313.28;;;7.17;89.47
3102;BME280;1561;42.666;23.392;2023-11-19T09:58:02;95327.84;;;6.37;99.86
3102;BME280;1561;42.666;23.392;2023-11-19T10:00:31;95327.25;;;5.65;100.00
3102;BME280;1561;42.666;23.392;2023-11-19T10:02:59;95240.03;;;5.41;100.00
3102;BME280;1561;42.666;23.392;2023-11-19T10:05:41;95311.69;;;5.57;100.00
3102;BME280;1561;42.666;23.392;2023-11-19T10:08:13;95301.38;;;6.93;100.00
3102;BME280;1561;42.666;23.392;2023-11-19T10:10:47;95326.81;;;6.66;100.00
3102;BME280;1561;42.666;23.392;2023-11-19T10:13:28;95318.88;;;8.21;86.94
3102;BME280;1561;42.666;23.392;2023-11-19T10:15:58;95263.19;;;9.86;73.83
3102;BME280;1561;42.666;23.392;2023-11-19T10:18:31;95287.94;;;10.71;66.40
3102;BME280;1561;42.666;23.392;2023-11-19T10:21:08;95325.69;;;10.25;68.12
3102;BME280;1561;42.666;23.392;2023-11-19T10:23:49;95304.03;;;10.51;66.29
3102;BME280;1561;42.666;23.392;2023-11-19T10:26:18;95312.88;;;10.99;62.32
3102;BME280;1561;42.666;23.392;2023-11-19T10:28:49;95316.06;;;11.12;61.26
3102;BME280;1561;42.666;23.392;2023-11-19T10:31:18;95311.69;;;11.94;58.24
3102;BME280;1561;42.666;23.392;2023-11-19T10:33:50;95297.00;;;12.64;55.08
3102;BME280;1561;42.666;23.392;2023-11-19T10:36:23;95303.50;;;10.36;59.32
3102;BME280;1561;42.666;23.392;2023-11-19T10:39:09;95298.06;;;10.61;63.21
3102;BME280;1561;42.666;23.392;2023-11-19T10:41:47;95277.78;;;11.42;59.61
3102;BME280;1561;42.666;23.392;2023-11-19T10:47:08;95307.34;;;10.94;61.66
3102;BME280;1561;42.666;23.392;2023-11-19T10:49:37;95310.50;;;10.12;64.11
3102;BME280;1561;42.666;23.392;2023-11-19T10:52:08;95300.66;;;10.50;62.03
3102;BME280;1561;42.666;23.392;2023-11-19T10:54:39;95277.97;;;10.36;62.77
3102;BME280;1561;42.666;23.392;2023-11-19T10:57:18;95244.50;;;8.86;70.73
3102;BME280;1561;42.666;23.392;2023-11-19T10:59:50;95221.66;;;8.74;69.83
3102;BME280;1561;42.666;23.392;2023-11-19T11:02:34;95311.09;;;8.58;75.73
3102;BME280;1561;42.666;23.392;2023-11-19T11:05:14;95314.31;;;7.27;85.07
3102;BME280;1561;42.666;23.392;2023-11-19T11:08:06;95311.38;;;7.33;89.56
3102;BME280;1561;42.666;23.392;2023-11-19T11:10:38;95315.94;;;7.16;91.40
3102;BME280;1561;42.666;23.392;2023-11-19T11:13:10;95281.88;;;7.92;86.18
3102;BME280;1561;42.666;23.392;2023-11-19T11:15:39;95284.50;;;9.19;75.02
3102;BME280;1561;42.666;23.392;2023-11-19T11:18:17;95253.47;;;9.36;70.61
3102;BME280;1561;42.666;23.392;2023-11-19T11:20:48;95284.34;;;8.17;76.44
3102;BME280;1561;42.666;23.392;2023-11-19T11:23:59;95285.44;;;7.89;82.38
3102;BME280;1561;42.666;23.392;2023-11-19T11:26:59;95208.78;;;7.83;76.19
3102;BME280;1561;42.666;23.392;2023-11-19T11:29:51;95281.84;;;9.76;69.77
3102;BME280;1561;42.666;23.392;2023-11-19T11:32:35;95279.69;;;9.49;68.47
3102;BME280;1561;42.666;23.392;2023-11-19T11:35:28;95289.03;;;9.27;69.40
3102;BME280;1561;42.666;23.392;2023-11-19T11:38:09;95286.22;;;8.97;70.35
3102;BME280;1561;42.666;23.392;2023-11-19T11:40:40;95252.25;;;8.50;74.12
3102;BME280;1561;42.666;23.392;2023-11-19T11:43:45;95274.03;;;8.31;75.20
3102;BME280;1561;42.666;23.392;2023-11-19T11:49:41;95176.06;;;8.02;75.05
3102;BME280;1561;42.666;23.392;2023-11-19T11:52:22;95229.00;;;8.20;76.90
3102;BME280;1561;42.666;23.392;2023-11-19T11:55:14;95260.44;;;8.77;75.12
3102;BME280;1561;42.666;23.392;2023-11-19T11:57:42;95262.72;;;8.58;76.43
3102;BME280;1561;42.666;23.392;2023-11-19T12:00:22;95228.41;;;8.51;77.72
3102;BME280;1561;42.666;23.392;2023-11-19T12:02:49;95262.91;;;8.55;78.24
3102;BME280;1561;42.666;23.392;2023-11-19T12:05:25;95268.34;;;8.51;80.89
3102;BME280;1561;42.666;23.392;2023-11-19T12:07:57;95177.81;;;8.12;80.11
3102;BME280;1561;42.666;23.392;2023-11-19T12:10:31;95260.72;;;8.27;85.26
3102;BME280;1561;42.666;23.392;2023-11-19T12:13:00;95241.66;;;8.09;86.28
3102;BME280;1561;42.666;23.392;2023-11-19T12:16:09;95243.00;;;7.66;88.20
3102;BME280;1561;42.666;23.392;2023-11-19T12:18:40;95243.63;;;7.57;89.35
3102;BME280;1561;42.666;23.392;2023-11-19T12:21:09;95248.13;;;7.54;91.33
3102;BME280;1561;42.666;23.392;2023-11-19T12:23:58;95239.34;;;7.70;90.79
3102;BME280;1561;42.666;23.392;2023-11-19T12:26:38;95211.13;;;7.37;91.11
3102;BME280;1561;42.666;23.392;2023-11-19T12:29:13;95234.25;;;7.70;91.40
3102;BME280;1561;42.666;23.392;2023-11-19T12:31:44;95213.97;;;7.45;89.90
3102;BME280;1561;42.666;23.392;2023-11-19T12:34:16;95201.59;;;7.28;93.62
3102;BME280;1561;42.666;23.392;2023-11-19T12:36:57;95145.38;;;6.97;94.80
3102;BME280;1561;42.666;23.392;2023-11-19T12:39:43;95215.03;;;7.30;94.41
3102;BME280;1561;42.666;23.392;2023-11-19T12:42:19;95156.34;;;7.10;95.17
3102;BME280;1561;42.666;23.392;2023-11-19T12:44:56;95205.56;;;7.45;95.00
3102;BME280;1561;42.666;23.392;2023-11-19T12:47:29;95205.31;;;6.87;99.95
3102;BME280;1561;42.666;23.392;2023-11-19T12:50:04;95207.84;;;6.99;100.00
3102;BME280;1561;42.666;23.392;2023-11-19T12:52:40;95198.19;;;6.79;100.00
3102;BME280;1561;42.666;23.392;2023-11-19T12:55:26;95091.91;;;6.12;100.00
3102;BME280;1561;42.666;23.392;2023-11-19T12:58:00;95206.44;;;6.83;100.00
3102;BME280;1561;42.666;23.392;2023-11-19T13:00:42;95210.28;;;7.01;100.00
3102;BME280;1561;42.666;23.392;2023-11-19T13:03:12;95201.75;;;6.77;100.00
3102;BME280;1561;42.666;23.392;2023-11-19T13:05:39;95201.16;;;6.73;100.00
3102;BME280;1561;42.666;23.392;2023-11-19T13:08:14;95199.91;;;6.91;100.00
3102;BME280;1561;42.666;23.392;2023-11-19T13:11:00;95196.28;;;6.83;100.00
3102;BME280;1561;42.666;23.392;2023-11-19T13:14:01;95194.44;;;6.85;100.00
3102;BME280;1561;42.666;23.392;2023-11-19T13:16:31;95199.94;;;6.79;100.00
3102;BME280;1561;42.666;23.392;2023-11-19T13:19:00;95206.22;;;6.86;100.00
3102;BME280;1561;42.666;23.392;2023-11-19T13:21:29;95201.97;;;6.86;100.00
3102;BME280;1561;42.666;23.392;2023-11-19T13:23:57;95174.34;;;6.57;100.00
3102;BME280;1561;42.666;23.392;2023-11-19T13:26:53;95161.16;;;6.64;100.00
3102;BME280;1561;42.666;23.392;2023-11-19T13:29:37;95180.13;;;6.84;100.00
3102;BME280;1561;42.666;23.392;2023-11-19T13:32:06;95170.56;;;7.12;100.00
3102;BME280;1561;42.666;23.392;2023-11-19T13:34:38;95171.91;;;6.93;100.00
3102;BME280;1561;42.666;23.392;2023-11-19T13:37:24;95169.25;;;6.94;100.00
3102;BME280;1561;42.666;23.392;2023-11-19T13:39:55;95186.72;;;7.11;100.00
3102;BME280;1561;42.666;23.392;2023-11-19T13:42:31;95168.53;;;7.05;100.00
3102;BME280;1561;42.666;23.392;2023-11-19T13:45:01;95184.34;;;7.21;100.00
3102;BME280;1561;42.666;23.392;2023-11-19T13:47:38;95179.81;;;7.01;100.00
3102;BME280;1561;42.666;23.392;2023-11-19T13:50:10;95168.34;;;6.83;100.00
3102;BME280;1561;42.666;23.392;2023-11-19T13:52:55;95154.53;;;6.62;100.00